sensor_id;sensor_type;location;lat;lon;timestamp;pressure;altitude;pressure_sealevel;temperature;humidity
43480;BME280;29067;35.492;-97.520;2023-05-02T00:02:01;96889.06;;;21.05;20.38
43480;BME280;29067;35.492;-97.520;2023-05-02T00:04:29;96892.77;;;19.54;20.33
43480;BME280;29067;35.492;-97.520;2023-05-02T00:06:58;96888.98;;;20.76;21.26
43480;BME280;29067;35.492;-97.520;2023-05-02T00:09:25;96890.84;;;20.85;20.87
43480;BME280;29067;35.492;-97.520;2023-05-02T00:11:53;96885.96;;;20.43;21.72
43480;BME280;29067;35.492;-97.520;2023-05-02T00:14:21;96883.28;;;20.79;21.81
43480;BME280;29067;35.492;-97.520;2023-05-02T00:16:49;96886.30;;;19.91;21.29
43480;BME280;29067;35.492;-97.520;2023-05-02T00:19:17;96884.76;;;20.40;25.66
43480;BME280;29067;35.492;-97.520;2023-05-02T00:21:47;96879.39;;;21.12;22.15
43480;BME280;29067;35.492;-97.520;2023-05-02T00:24:15;96879.88;;;20.68;22.33
43480;BME280;29067;35.492;-97.520;2023-05-02T00:26:44;96878.61;;;20.56;22.29
43480;BME280;29067;35.492;-97.520;2023-05-02T00:29:12;96877.02;;;20.27;21.79
43480;BME280;29067;35.492;-97.520;2023-05-02T00:31:40;96879.41;;;20.46;23.00
43480;BME280;29067;35.492;-97.520;2023-05-02T00:34:09;96878.81;;;20.72;21.79
43480;BME280;29067;35.492;-97.520;2023-05-02T00:36:36;96883.89;;;19.89;24.72
43480;BME280;29067;35.492;-97.520;2023-05-02T00:39:05;96888.45;;;19.90;24.27
43480;BME280;29067;35.492;-97.520;2023-05-02T00:41:32;96886.86;;;21.03;22.01
43480;BME280;29067;35.492;-97.520;2023-05-02T00:44:01;96892.13;;;19.73;24.48
43480;BME280;29067;35.492;-97.520;2023-05-02T00:46:29;96883.22;;;20.50;22.85
43480;BME280;29067;35.492;-97.520;2023-05-02T00:48:58;96888.21;;;20.62;22.86
43480;BME280;29067;35.492;-97.520;2023-05-02T00:51:28;96889.14;;;20.98;21.96
43480;BME280;29067;35.492;-97.520;2023-05-02T00:53:56;96892.74;;;19.06;23.63
43480;BME280;29067;35.492;-97.520;2023-05-02T00:56:29;96896.68;;;20.45;23.12
43480;BME280;29067;35.492;-97.520;2023-05-02T00:58:57;96898.29;;;20.33;23.64
43480;BME280;29067;35.492;-97.520;2023-05-02T01:01:35;96900.20;;;19.95;23.52
43480;BME280;29067;35.492;-97.520;2023-05-02T01:04:18;96904.21;;;19.27;22.81
43480;BME280;29067;35.492;-97.520;2023-05-02T01:06:58;96902.84;;;19.67;24.38
43480;BME280;29067;35.492;-97.520;2023-05-02T01:09:45;96899.91;;;20.24;23.94
43480;BME280;29067;35.492;-97.520;2023-05-02T01:12:25;96901.25;;;19.96;22.42
43480;BME280;29067;35.492;-97.520;2023-05-02T01:14:56;96902.88;;;19.03;23.44
43480;BME280;29067;35.492;-97.520;2023-05-02T01:17:28;96903.31;;;20.29;23.99
43480;BME280;29067;35.492;-97.520;2023-05-02T01:19:59;96905.89;;;18.93;23.16
43480;BME280;29067;35.492;-97.520;2023-05-02T01:22:29;96911.71;;;19.36;23.29
43480;BME280;29067;35.492;-97.520;2023-05-02T01:25:03;96910.11;;;18.15;23.78
43480;BME280;29067;35.492;-97.520;2023-05-02T01:27:42;96912.63;;;19.60;23.66
43480;BME280;29067;35.492;-97.520;2023-05-02T01:30:14;96912.32;;;19.63;22.94
43480;BME280;29067;35.492;-97.520;2023-05-02T01:32:46;96910.99;;;20.08;22.41
43480;BME280;29067;35.492;-97.520;2023-05-02T01:35:16;96913.97;;;19.62;23.08
43480;BME280;29067;35.492;-97.520;2023-05-02T01:37:46;96918.05;;;18.78;24.13
43480;BME280;29067;35.492;-97.520;2023-05-02T01:40:17;96922.74;;;19.49;23.75
43480;BME280;29067;35.492;-97.520;2023-05-02T01:42:47;96926.63;;;19.52;24.02
43480;BME280;29067;35.492;-97.520;2023-05-02T01:45:17;96926.85;;;18.89;24.05
43480;BME280;29067;35.492;-97.520;2023-05-02T01:47:46;96928.16;;;18.92;24.26
43480;BME280;29067;35.492;-97.520;2023-05-02T01:50:18;96934.45;;;20.31;24.00
43480;BME280;29067;35.492;-97.520;2023-05-02T01:52:49;96931.72;;;18.46;24.18
43480;BME280;29067;35.492;-97.520;2023-05-02T01:55:18;96933.06;;;18.69;25.02
43480;BME280;29067;35.492;-97.520;2023-05-02T01:57:47;96934.19;;;19.30;24.40
43480;BME280;29067;35.492;-97.520;2023-05-02T02:00:17;96936.00;;;18.78;24.89
43480;BME280;29067;35.492;-97.520;2023-05-02T02:02:46;96940.77;;;20.14;25.39
43480;BME280;29067;35.492;-97.520;2023-05-02T02:05:16;96939.62;;;19.18;24.40
43480;BME280;29067;35.492;-97.520;2023-05-02T02:07:45;96941.82;;;19.18;25.02
43480;BME280;29067;35.492;-97.520;2023-05-02T02:10:13;96945.42;;;17.82;25.86
43480;BME280;29067;35.492;-97.520;2023-05-02T02:12:44;96948.91;;;17.29;26.41
43480;BME280;29067;35.492;-97.520;2023-05-02T02:15:20;96951.73;;;16.17;27.47
43480;BME280;29067;35.492;-97.520;2023-05-02T02:17:58;96949.51;;;18.18;26.89
43480;BME280;29067;35.492;-97.520;2023-05-02T02:20:27;96953.74;;;15.85;27.81
43480;BME280;29067;35.492;-97.520;2023-05-02T02:22:57;96957.37;;;16.40;28.06
43480;BME280;29067;35.492;-97.520;2023-05-02T02:25:27;96959.72;;;18.75;26.81
43480;BME280;29067;35.492;-97.520;2023-05-02T02:27:56;96961.22;;;18.53;26.68
43480;BME280;29067;35.492;-97.520;2023-05-02T02:30:25;96960.20;;;18.20;26.88
43480;BME280;29067;35.492;-97.520;2023-05-02T02:32:52;96964.48;;;17.70;27.02
43480;BME280;29067;35.492;-97.520;2023-05-02T02:35:20;96968.10;;;16.72;27.39
43480;BME280;29067;35.492;-97.520;2023-05-02T02:37:57;96966.10;;;17.39;27.65
43480;BME280;29067;35.492;-97.520;2023-05-02T02:40:33;96969.06;;;18.61;26.51
43480;BME280;29067;35.492;-97.520;2023-05-02T02:43:14;96968.65;;;17.37;27.22
43480;BME280;29067;35.492;-97.520;2023-05-02T02:45:49;96974.35;;;17.95;27.63
43480;BME280;29067;35.492;-97.520;2023-05-02T02:48:27;96979.06;;;16.92;28.37
43480;BME280;29067;35.492;-97.520;2023-05-02T02:51:06;96975.60;;;17.64;28.50
43480;BME280;29067;35.492;-97.520;2023-05-02T02:53:49;96974.57;;;16.97;28.13
43480;BME280;29067;35.492;-97.520;2023-05-02T02:56:25;96981.85;;;16.84;28.41
43480;BME280;29067;35.492;-97.520;2023-05-02T02:58:57;96985.27;;;16.83;28.55
43480;BME280;29067;35.492;-97.520;2023-05-02T03:01:31;96989.12;;;16.51;29.52
43480;BME280;29067;35.492;-97.520;2023-05-02T03:04:00;96993.09;;;16.67;29.20
43480;BME280;29067;35.492;-97.520;2023-05-02T03:06:32;97003.86;;;14.79;30.44
43480;BME280;29067;35.492;-97.520;2023-05-02T03:09:01;97001.22;;;16.03;30.28
43480;BME280;29067;35.492;-97.520;2023-05-02T03:11:28;97007.14;;;15.26;29.99
43480;BME280;29067;35.492;-97.520;2023-05-02T03:13:56;97003.84;;;16.36;30.08
43480;BME280;29067;35.492;-97.520;2023-05-02T03:16:33;97004.67;;;15.47;30.05
43480;BME280;29067;35.492;-97.520;2023-05-02T03:19:01;97002.87;;;16.82;30.11
43480;BME280;29067;35.492;-97.520;2023-05-02T03:21:29;97003.99;;;17.28;29.48
43480;BME280;29067;35.492;-97.520;2023-05-02T03:23:58;97008.97;;;16.05;29.78
43480;BME280;29067;35.492;-97.520;2023-05-02T03:26:26;97009.63;;;16.18;29.87
43480;BME280;29067;35.492;-97.520;2023-05-02T03:28:55;97009.92;;;15.59;30.53
43480;BME280;29067;35.492;-97.520;2023-05-02T03:31:24;97011.21;;;13.93;31.71
43480;BME280;29067;35.492;-97.520;2023-05-02T03:33:51;97011.23;;;14.16;32.02
43480;BME280;29067;35.492;-97.520;2023-05-02T03:36:19;97008.41;;;13.92;31.97
43480;BME280;29067;35.492;-97.520;2023-05-02T03:38:47;97011.19;;;14.34;32.32
43480;BME280;29067;35.492;-97.520;2023-05-02T03:41:15;97012.07;;;14.38;32.51
43480;BME280;29067;35.492;-97.520;2023-05-02T03:43:42;97012.49;;;14.68;31.61
43480;BME280;29067;35.492;-97.520;2023-05-02T03:46:10;97011.68;;;13.06;32.95
43480;BME280;29067;35.492;-97.520;2023-05-02T03:48:38;97013.43;;;13.01;33.21
43480;BME280;29067;35.492;-97.520;2023-05-02T03:51:06;97015.23;;;14.09;32.75
43480;BME280;29067;35.492;-97.520;2023-05-02T03:53:35;97013.93;;;14.04;33.37
43480;BME280;29067;35.492;-97.520;2023-05-02T03:56:03;97014.74;;;14.17;33.03
43480;BME280;29067;35.492;-97.520;2023-05-02T03:58:32;97009.94;;;13.87;33.59
43480;BME280;29067;35.492;-97.520;2023-05-02T04:00:59;97006.30;;;14.10;33.09
43480;BME280;29067;35.492;-97.520;2023-05-02T04:03:27;97005.77;;;14.03;33.56
43480;BME280;29067;35.492;-97.520;2023-05-02T04:05:55;97002.53;;;14.02;33.80
43480;BME280;29067;35.492;-97.520;2023-05-02T04:08:23;97007.61;;;13.14;34.29
43480;BME280;29067;35.492;-97.520;2023-05-02T04:10:51;97010.73;;;12.71;35.05
43480;BME280;29067;35.492;-97.520;2023-05-02T04:13:18;97011.50;;;12.08;35.00
43480;BME280;29067;35.492;-97.520;2023-05-02T04:15:46;97000.91;;;14.49;33.78
43480;BME280;29067;35.492;-97.520;2023-05-02T04:18:14;96997.88;;;15.04;33.00
43480;BME280;29067;35.492;-97.520;2023-05-02T04:20:43;96999.66;;;13.57;33.38
43480;BME280;29067;35.492;-97.520;2023-05-02T04:23:11;96998.97;;;12.73;33.97
43480;BME280;29067;35.492;-97.520;2023-05-02T04:25:38;96996.24;;;13.77;33.55
43480;BME280;29067;35.492;-97.520;2023-05-02T04:28:06;96989.58;;;14.21;32.66
43480;BME280;29067;35.492;-97.520;2023-05-02T04:30:34;96984.59;;;14.45;32.08
43480;BME280;29067;35.492;-97.520;2023-05-02T04:33:03;96984.60;;;14.64;32.39
43480;BME280;29067;35.492;-97.520;2023-05-02T04:35:31;96989.15;;;14.06;32.52
43480;BME280;29067;35.492;-97.520;2023-05-02T04:37:59;96987.65;;;14.68;30.62
43480;BME280;29067;35.492;-97.520;2023-05-02T04:40:27;96988.84;;;13.62;32.11
43480;BME280;29067;35.492;-97.520;2023-05-02T04:42:55;96986.69;;;13.79;32.81
43480;BME280;29067;35.492;-97.520;2023-05-02T04:45:23;96986.28;;;13.78;33.40
43480;BME280;29067;35.492;-97.520;2023-05-02T04:47:51;96986.89;;;14.36;31.96
43480;BME280;29067;35.492;-97.520;2023-05-02T04:50:20;96991.07;;;14.26;33.06
43480;BME280;29067;35.492;-97.520;2023-05-02T04:52:48;96989.74;;;13.82;32.55
43480;BME280;29067;35.492;-97.520;2023-05-02T04:55:16;96987.83;;;13.91;32.42
43480;BME280;29067;35.492;-97.520;2023-05-02T04:57:45;96992.06;;;13.60;32.58
43480;BME280;29067;35.492;-97.520;2023-05-02T05:00:13;96990.76;;;13.29;33.40
43480;BME280;29067;35.492;-97.520;2023-05-02T05:02:41;96998.72;;;12.78;33.56
43480;BME280;29067;35.492;-97.520;2023-05-02T05:05:09;97007.21;;;12.67;34.38
43480;BME280;29067;35.492;-97.520;2023-05-02T05:07:37;97003.07;;;13.32;33.50
43480;BME280;29067;35.492;-97.520;2023-05-02T05:10:06;97001.11;;;13.15;33.66
43480;BME280;29067;35.492;-97.520;2023-05-02T05:12:35;97005.12;;;12.67;33.56
43480;BME280;29067;35.492;-97.520;2023-05-02T05:15:03;97000.86;;;13.02;33.01
43480;BME280;29067;35.492;-97.520;2023-05-02T05:17:31;97004.39;;;13.55;33.43
43480;BME280;29067;35.492;-97.520;2023-05-02T05:19:59;97011.36;;;13.81;34.11
43480;BME280;29067;35.492;-97.520;2023-05-02T05:22:27;97016.57;;;14.18;34.04
43480;BME280;29067;35.492;-97.520;2023-05-02T05:24:55;97013.41;;;12.94;33.59
43480;BME280;29067;35.492;-97.520;2023-05-02T05:27:23;97012.07;;;13.35;32.10
43480;BME280;29067;35.492;-97.520;2023-05-02T05:29:51;97011.52;;;13.69;31.91
43480;BME280;29067;35.492;-97.520;2023-05-02T05:32:18;97006.64;;;13.93;32.39
43480;BME280;29067;35.492;-97.520;2023-05-02T05:34:50;97008.08;;;14.25;31.92
43480;BME280;29067;35.492;-97.520;2023-05-02T05:37:18;97008.65;;;13.91;31.63
43480;BME280;29067;35.492;-97.520;2023-05-02T05:39:46;97006.29;;;14.65;31.28
43480;BME280;29067;35.492;-97.520;2023-05-02T05:42:14;97006.79;;;15.11;30.85
43480;BME280;29067;35.492;-97.520;2023-05-02T05:44:42;97010.38;;;14.57;31.30
43480;BME280;29067;35.492;-97.520;2023-05-02T05:47:09;97008.52;;;14.95;30.99
43480;BME280;29067;35.492;-97.520;2023-05-02T05:49:37;97005.70;;;14.79;31.26
43480;BME280;29067;35.492;-97.520;2023-05-02T05:52:05;97005.08;;;14.06;32.03
43480;BME280;29067;35.492;-97.520;2023-05-02T05:54:33;96999.88;;;14.69;31.51
43480;BME280;29067;35.492;-97.520;2023-05-02T05:57:02;96999.94;;;15.11;31.68
43480;BME280;29067;35.492;-97.520;2023-05-02T05:59:30;96999.17;;;15.19;30.75
43480;BME280;29067;35.492;-97.520;2023-05-02T06:02:01;97001.10;;;15.81;30.87
43480;BME280;29067;35.492;-97.520;2023-05-02T06:04:29;96997.29;;;14.97;31.42
43480;BME280;29067;35.492;-97.520;2023-05-02T06:06:57;96993.87;;;15.05;31.34
43480;BME280;29067;35.492;-97.520;2023-05-02T06:09:25;96997.99;;;14.84;31.07
43480;BME280;29067;35.492;-97.520;2023-05-02T06:11:52;97004.41;;;15.34;31.49
43480;BME280;29067;35.492;-97.520;2023-05-02T06:14:20;97004.10;;;15.34;31.05
43480;BME280;29067;35.492;-97.520;2023-05-02T06:16:48;97005.63;;;14.74;31.97
43480;BME280;29067;35.492;-97.520;2023-05-02T06:19:16;97003.04;;;13.75;32.45
43480;BME280;29067;35.492;-97.520;2023-05-02T06:21:44;96998.48;;;14.57;31.92
43480;BME280;29067;35.492;-97.520;2023-05-02T06:24:11;96999.09;;;12.97;33.08
43480;BME280;29067;35.492;-97.520;2023-05-02T06:26:39;97000.42;;;13.21;33.02
43480;BME280;29067;35.492;-97.520;2023-05-02T06:29:07;96999.89;;;14.72;31.89
43480;BME280;29067;35.492;-97.520;2023-05-02T06:31:35;97001.89;;;13.70;34.13
43480;BME280;29067;35.492;-97.520;2023-05-02T06:34:03;97000.67;;;13.29;33.30
43480;BME280;29067;35.492;-97.520;2023-05-02T06:36:30;97000.16;;;13.15;33.67
43480;BME280;29067;35.492;-97.520;2023-05-02T06:38:58;97000.19;;;12.04;34.04
43480;BME280;29067;35.492;-97.520;2023-05-02T06:41:26;96996.63;;;13.62;33.03
43480;BME280;29067;35.492;-97.520;2023-05-02T06:43:54;97001.78;;;14.54;32.44
43480;BME280;29067;35.492;-97.520;2023-05-02T06:46:21;96999.21;;;14.43;32.69
43480;BME280;29067;35.492;-97.520;2023-05-02T06:48:49;97004.73;;;12.82;33.95
43480;BME280;29067;35.492;-97.520;2023-05-02T06:51:17;96995.46;;;14.05;33.01
43480;BME280;29067;35.492;-97.520;2023-05-02T06:53:45;96997.30;;;13.03;34.14
43480;BME280;29067;35.492;-97.520;2023-05-02T06:56:13;97000.42;;;12.23;34.96
43480;BME280;29067;35.492;-97.520;2023-05-02T06:58:43;96992.83;;;13.31;33.87
43480;BME280;29067;35.492;-97.520;2023-05-02T07:01:11;96994.55;;;13.78;33.76
43480;BME280;29067;35.492;-97.520;2023-05-02T07:03:39;96999.57;;;12.74;34.82
43480;BME280;29067;35.492;-97.520;2023-05-02T07:06:07;97000.47;;;12.12;35.36
43480;BME280;29067;35.492;-97.520;2023-05-02T07:08:35;96998.61;;;12.08;36.29
43480;BME280;29067;35.492;-97.520;2023-05-02T07:11:03;97000.85;;;12.51;35.55
43480;BME280;29067;35.492;-97.520;2023-05-02T07:13:31;97002.08;;;12.56;35.19
43480;BME280;29067;35.492;-97.520;2023-05-02T07:15:58;97002.88;;;12.98;35.54
43480;BME280;29067;35.492;-97.520;2023-05-02T07:18:26;96998.35;;;13.34;34.30
43480;BME280;29067;35.492;-97.520;2023-05-02T07:20:54;96999.16;;;13.22;34.62
43480;BME280;29067;35.492;-97.520;2023-05-02T07:23:22;96999.72;;;12.26;35.04
43480;BME280;29067;35.492;-97.520;2023-05-02T07:25:50;97002.02;;;11.46;35.77
43480;BME280;29067;35.492;-97.520;2023-05-02T07:28:18;97008.78;;;12.00;36.31
43480;BME280;29067;35.492;-97.520;2023-05-02T07:30:46;97014.05;;;11.50;36.33
43480;BME280;29067;35.492;-97.520;2023-05-02T07:33:14;97005.07;;;12.52;35.66
43480;BME280;29067;35.492;-97.520;2023-05-02T07:35:42;96995.47;;;13.94;34.19
43480;BME280;29067;35.492;-97.520;2023-05-02T07:38:10;96998.43;;;12.05;35.66
43480;BME280;29067;35.492;-97.520;2023-05-02T07:40:38;97005.90;;;10.96;37.36
43480;BME280;29067;35.492;-97.520;2023-05-02T07:43:06;96998.81;;;11.48;36.71
43480;BME280;29067;35.492;-97.520;2023-05-02T07:45:34;96995.16;;;13.03;35.30
43480;BME280;29067;35.492;-97.520;2023-05-02T07:48:02;96997.24;;;12.67;35.71
43480;BME280;29067;35.492;-97.520;2023-05-02T07:50:29;96999.48;;;11.33;36.87
43480;BME280;29067;35.492;-97.520;2023-05-02T07:52:57;97001.60;;;11.20;37.62
43480;BME280;29067;35.492;-97.520;2023-05-02T07:55:25;97006.44;;;10.68;38.42
43480;BME280;29067;35.492;-97.520;2023-05-02T07:57:53;97008.15;;;9.92;39.11
43480;BME280;29067;35.492;-97.520;2023-05-02T08:00:22;97008.12;;;10.14;39.19
43480;BME280;29067;35.492;-97.520;2023-05-02T08:02:50;97009.52;;;10.09;39.31
43480;BME280;29067;35.492;-97.520;2023-05-02T08:05:18;97004.01;;;10.36;39.98
43480;BME280;29067;35.492;-97.520;2023-05-02T08:07:46;97008.49;;;9.13;40.32
43480;BME280;29067;35.492;-97.520;2023-05-02T08:10:14;97014.80;;;9.59;41.41
43480;BME280;29067;35.492;-97.520;2023-05-02T08:12:42;97012.03;;;11.86;38.88
43480;BME280;29067;35.492;-97.520;2023-05-02T08:15:11;97020.35;;;10.22;39.67
43480;BME280;29067;35.492;-97.520;2023-05-02T08:17:39;97026.84;;;10.74;41.51
43480;BME280;29067;35.492;-97.520;2023-05-02T08:20:08;97025.28;;;11.90;40.23
43480;BME280;29067;35.492;-97.520;2023-05-02T08:22:36;97027.49;;;10.75;40.66
43480;BME280;29067;35.492;-97.520;2023-05-02T08:25:04;97037.59;;;9.92;41.99
43480;BME280;29067;35.492;-97.520;2023-05-02T08:27:32;97039.19;;;9.41;43.08
43480;BME280;29067;35.492;-97.520;2023-05-02T08:30:00;97039.97;;;9.50;43.21
43480;BME280;29067;35.492;-97.520;2023-05-02T08:32:28;97039.23;;;10.37;42.84
43480;BME280;29067;35.492;-97.520;2023-05-02T08:34:56;97043.41;;;9.96;43.02
43480;BME280;29067;35.492;-97.520;2023-05-02T08:37:24;97047.91;;;9.22;44.31
43480;BME280;29067;35.492;-97.520;2023-05-02T08:39:52;97046.24;;;9.98;43.72
43480;BME280;29067;35.492;-97.520;2023-05-02T08:42:20;97048.09;;;10.67;42.02
43480;BME280;29067;35.492;-97.520;2023-05-02T08:44:49;97045.53;;;11.73;40.83
43480;BME280;29067;35.492;-97.520;2023-05-02T08:47:18;97050.68;;;11.03;41.18
43480;BME280;29067;35.492;-97.520;2023-05-02T08:49:46;97048.65;;;9.94;42.68
43480;BME280;29067;35.492;-97.520;2023-05-02T08:52:16;97051.59;;;9.70;43.34
43480;BME280;29067;35.492;-97.520;2023-05-02T08:54:46;97048.40;;;11.67;41.57
43480;BME280;29067;35.492;-97.520;2023-05-02T08:57:14;97046.30;;;11.99;39.82
43480;BME280;29067;35.492;-97.520;2023-05-02T08:59:42;97049.88;;;10.48;40.93
43480;BME280;29067;35.492;-97.520;2023-05-02T09:02:20;97046.90;;;10.22;41.84
43480;BME280;29067;35.492;-97.520;2023-05-02T09:04:53;97048.50;;;9.07;43.53
43480;BME280;29067;35.492;-97.520;2023-05-02T09:07:24;97052.70;;;8.98;44.19
43480;BME280;29067;35.492;-97.520;2023-05-02T09:09:52;97054.79;;;8.82;44.27
43480;BME280;29067;35.492;-97.520;2023-05-02T09:12:24;97059.12;;;8.97;44.55
43480;BME280;29067;35.492;-97.520;2023-05-02T09:15:09;97059.59;;;8.87;45.14
43480;BME280;29067;35.492;-97.520;2023-05-02T09:17:40;97058.90;;;10.00;44.42
43480;BME280;29067;35.492;-97.520;2023-05-02T09:20:09;97053.82;;;10.37;43.05
43480;BME280;29067;35.492;-97.520;2023-05-02T09:22:38;97050.41;;;9.41;43.83
43480;BME280;29067;35.492;-97.520;2023-05-02T09:25:07;97048.35;;;10.18;42.43
43480;BME280;29067;35.492;-97.520;2023-05-02T09:27:51;97051.10;;;9.38;44.10
43480;BME280;29067;35.492;-97.520;2023-05-02T09:30:21;97051.43;;;9.23;44.28
43480;BME280;29067;35.492;-97.520;2023-05-02T09:32:50;97054.20;;;10.62;43.92
43480;BME280;29067;35.492;-97.520;2023-05-02T09:35:18;97057.01;;;9.13;44.66
43480;BME280;29067;35.492;-97.520;2023-05-02T09:37:46;97060.72;;;8.48;45.71
43480;BME280;29067;35.492;-97.520;2023-05-02T09:40:19;97062.33;;;9.37;45.35
43480;BME280;29067;35.492;-97.520;2023-05-02T09:42:47;97062.41;;;8.89;45.89
43480;BME280;29067;35.492;-97.520;2023-05-02T09:45:24;97064.70;;;8.32;47.29
43480;BME280;29067;35.492;-97.520;2023-05-02T09:47:53;97068.80;;;8.42;47.13
43480;BME280;29067;35.492;-97.520;2023-05-02T09:50:37;97075.97;;;8.49;47.32
43480;BME280;29067;35.492;-97.520;2023-05-02T09:53:06;97074.24;;;8.67;47.20
43480;BME280;29067;35.492;-97.520;2023-05-02T09:55:34;97077.25;;;7.90;47.41
43480;BME280;29067;35.492;-97.520;2023-05-02T09:58:02;97078.94;;;8.08;47.63
43480;BME280;29067;35.492;-97.520;2023-05-02T10:00:46;97079.90;;;8.93;46.98
43480;BME280;29067;35.492;-97.520;2023-05-02T10:03:16;97076.32;;;9.93;44.86
43480;BME280;29067;35.492;-97.520;2023-05-02T10:05:45;97078.96;;;8.66;46.33
43480;BME280;29067;35.492;-97.520;2023-05-02T10:08:15;97086.92;;;8.24;46.90
43480;BME280;29067;35.492;-97.520;2023-05-02T10:10:49;97094.44;;;7.71;47.13
43480;BME280;29067;35.492;-97.520;2023-05-02T10:13:19;97099.89;;;8.11;47.18
43480;BME280;29067;35.492;-97.520;2023-05-02T10:15:53;97103.28;;;7.83;47.31
43480;BME280;29067;35.492;-97.520;2023-05-02T10:18:26;97108.62;;;8.21;47.32
43480;BME280;29067;35.492;-97.520;2023-05-02T10:20:57;97112.34;;;8.09;47.83
43480;BME280;29067;35.492;-97.520;2023-05-02T10:23:27;97114.45;;;7.45;48.70
43480;BME280;29067;35.492;-97.520;2023-05-02T10:25:56;97117.85;;;7.74;48.38
43480;BME280;29067;35.492;-97.520;2023-05-02T10:28:26;97121.92;;;7.51;48.34
43480;BME280;29067;35.492;-97.520;2023-05-02T10:30:54;97124.75;;;8.85;46.98
43480;BME280;29067;35.492;-97.520;2023-05-02T10:33:23;97128.96;;;8.90;47.49
43480;BME280;29067;35.492;-97.520;2023-05-02T10:35:51;97134.76;;;8.79;47.38
43480;BME280;29067;35.492;-97.520;2023-05-02T10:38:21;97139.77;;;8.20;48.01
43480;BME280;29067;35.492;-97.520;2023-05-02T10:40:53;97144.42;;;8.42;47.27
43480;BME280;29067;35.492;-97.520;2023-05-02T10:43:25;97148.30;;;8.78;46.45
43480;BME280;29067;35.492;-97.520;2023-05-02T10:45:53;97142.25;;;10.23;45.29
43480;BME280;29067;35.492;-97.520;2023-05-02T10:48:22;97134.61;;;10.77;43.12
43480;BME280;29067;35.492;-97.520;2023-05-02T10:50:52;97138.07;;;9.55;44.14
43480;BME280;29067;35.492;-97.520;2023-05-02T10:53:24;97139.69;;;8.97;44.59
43480;BME280;29067;35.492;-97.520;2023-05-02T10:56:23;97134.57;;;9.63;44.44
43480;BME280;29067;35.492;-97.520;2023-05-02T10:58:52;97130.83;;;10.29;43.61
43480;BME280;29067;35.492;-97.520;2023-05-02T11:03:00;97134.35;;;9.08;45.02
43480;BME280;29067;35.492;-97.520;2023-05-02T11:05:29;97143.31;;;8.18;45.49
43480;BME280;29067;35.492;-97.520;2023-05-02T11:08:30;97149.40;;;7.32;47.79
43480;BME280;29067;35.492;-97.520;2023-05-02T11:11:37;97154.47;;;7.64;47.15
43480;BME280;29067;35.492;-97.520;2023-05-02T11:14:06;97162.20;;;7.95;48.30
43480;BME280;29067;35.492;-97.520;2023-05-02T11:17:08;97167.43;;;6.70;49.27
43480;BME280;29067;35.492;-97.520;2023-05-02T11:20:24;97176.77;;;8.21;49.57
43480;BME280;29067;35.492;-97.520;2023-05-02T11:22:54;97180.33;;;7.84;49.21
43480;BME280;29067;35.492;-97.520;2023-05-02T11:25:31;97180.27;;;8.16;48.57
43480;BME280;29067;35.492;-97.520;2023-05-02T11:27:59;97188.50;;;8.42;47.63
43480;BME280;29067;35.492;-97.520;2023-05-02T11:30:44;97190.56;;;8.30;48.04
43480;BME280;29067;35.492;-97.520;2023-05-02T11:33:14;97181.92;;;9.74;46.30
43480;BME280;29067;35.492;-97.520;2023-05-02T11:35:43;97181.78;;;8.95;47.21
43480;BME280;29067;35.492;-97.520;2023-05-02T11:38:14;97179.53;;;9.24;46.08
43480;BME280;29067;35.492;-97.520;2023-05-02T11:40:54;97181.62;;;8.69;46.20
43480;BME280;29067;35.492;-97.520;2023-05-02T11:43:24;97184.04;;;8.72;45.92
43480;BME280;29067;35.492;-97.520;2023-05-02T11:45:53;97196.07;;;7.53;47.78
43480;BME280;29067;35.492;-97.520;2023-05-02T11:48:22;97201.79;;;7.50;47.76
43480;BME280;29067;35.492;-97.520;2023-05-02T11:50:53;97203.55;;;8.95;46.33
43480;BME280;29067;35.492;-97.520;2023-05-02T11:53:23;97217.50;;;7.18;51.04
43480;BME280;29067;35.492;-97.520;2023-05-02T11:55:53;97223.13;;;7.13;51.31
43480;BME280;29067;35.492;-97.520;2023-05-02T11:58:22;97223.77;;;7.97;50.73
43480;BME280;29067;35.492;-97.520;2023-05-02T12:00:52;97226.94;;;7.95;50.68
43480;BME280;29067;35.492;-97.520;2023-05-02T12:03:22;97229.58;;;7.67;51.68
43480;BME280;29067;35.492;-97.520;2023-05-02T12:05:51;97236.81;;;7.87;52.41
43480;BME280;29067;35.492;-97.520;2023-05-02T12:08:21;97230.58;;;7.09;50.64
43480;BME280;29067;35.492;-97.520;2023-05-02T12:10:51;97224.16;;;8.31;49.32
43480;BME280;29067;35.492;-97.520;2023-05-02T12:13:21;97215.34;;;9.15;47.11
43480;BME280;29067;35.492;-97.520;2023-05-02T12:15:50;97221.37;;;9.48;46.39
43480;BME280;29067;35.492;-97.520;2023-05-02T12:18:19;97225.61;;;9.22;47.81
43480;BME280;29067;35.492;-97.520;2023-05-02T12:20:49;97225.93;;;9.83;45.68
43480;BME280;29067;35.492;-97.520;2023-05-02T12:23:17;97227.28;;;10.76;43.17
43480;BME280;29067;35.492;-97.520;2023-05-02T12:25:46;97229.52;;;10.70;43.83
43480;BME280;29067;35.492;-97.520;2023-05-02T12:28:16;97228.52;;;11.72;41.44
43480;BME280;29067;35.492;-97.520;2023-05-02T12:30:47;97232.12;;;11.72;41.51
43480;BME280;29067;35.492;-97.520;2023-05-02T12:33:15;97236.14;;;12.05;41.12
43480;BME280;29067;35.492;-97.520;2023-05-02T12:35:44;97241.93;;;11.52;41.02
43480;BME280;29067;35.492;-97.520;2023-05-02T12:38:14;97248.78;;;11.78;41.00
43480;BME280;29067;35.492;-97.520;2023-05-02T12:40:48;97249.57;;;12.60;40.65
43480;BME280;29067;35.492;-97.520;2023-05-02T12:43:16;97253.00;;;12.67;40.39
43480;BME280;29067;35.492;-97.520;2023-05-02T12:45:44;97257.37;;;12.42;40.47
43480;BME280;29067;35.492;-97.520;2023-05-02T12:48:20;97263.66;;;13.27;39.80
43480;BME280;29067;35.492;-97.520;2023-05-02T12:50:49;97268.54;;;12.47;40.27
43480;BME280;29067;35.492;-97.520;2023-05-02T12:53:37;97268.61;;;13.51;39.40
43480;BME280;29067;35.492;-97.520;2023-05-02T12:56:06;97270.10;;;13.00;39.08
43480;BME280;29067;35.492;-97.520;2023-05-02T12:58:43;97269.65;;;13.00;38.66
43480;BME280;29067;35.492;-97.520;2023-05-02T13:01:12;97273.90;;;14.13;37.70